Rapid City, SD (57702)

1:48 PM MST on March 02, 2015 (GMT -0700)
Bogus Jim Road | Change Station
CLOSE
Current Station
Personal Weather Station
Location: Rapid City, SD
Elevation: 4419 ft
Nearby Weather Stations
Active Advisory: Winter Weather Advisory

Elev 4419 ft 44.12 °N, 103.44 °W | Updated 7 seconds ago

Partly Cloudy
Partly Cloudy
45.2 °F
Feels Like 45 °F
N
0.0
Wind Variable Wind from East
Gusts 0.0 mph

Today
High -- | Low -- °F
--% Chance of Precip.
Yesterday
High -- | Low -- °F
Precip. -- in
6:28 AM 5:42 PM
Waxing Gibbous, 93% visible
Pressure 29.84 in
Visibility 10.0 miles
Clouds Clear
Windchill 45 °F
Dew Point 25 °F
Humidity 45%
Rainfall 0.00 in
Snow Depth Not available.
UV 5 out of 12
Pollen 1.20 out of 12
Air Quality Not available.
Flu Activity Not available.
METAR KRAP 021952Z 19017KT 10SM CLR 08/M05 A2975 RMK AO2 PK WND 20026/1936 SLP104 T00831050

More Conditions Fewer Conditions

Pressure 29.84 in
Visibility 10.0 miles
Clouds Clear
Windchill 45 °F
Dew Point 25 °F
Humidity 45%
Rainfall 0.00 in
Snow Depth Not available.
UV 5 out of 12
Pollen 1.20 out of 12
Air Quality Not available.
Flu Activity Not available.
METAR KRAP 021952Z 19017KT 10SM CLR 08/M05 A2975 RMK AO2 PK WND 20026/1936 SLP104 T00831050

More Conditions Fewer Conditions

10-Day Weather Forecast

Almanac

Astronomy

Mar. 02, 2015 Rise Set
Actual Time
Civil Twilight
Nautical Twilight
Astronomical Twilight
Moon
Length of Visible Light
Length of Day
Tomorrow will be .
, % of the Moon is Illuminated

Today's Extremes

State Highs State Lows

Community

WunderPhotos

Upload Photos

1,801,941 photos uploaded!

WunderBlogs® & News

Nearby

Air Quality

  Air Quality AQ Index Pollutant
Not available.

Snow Depth

Station Depth Elevation

Earthquake Activity

City Distance Mag. Time & Date
Minimum magnitude displayed is 2.5.

Coastal Water Temperatures

Place Temperature

Nearby Weather Stations

Winter Weather Advisory
Statement as of 1:29 PM MST on March 02, 2015

... Winter Weather Advisory in effect from 8 PM this evening to
noon MST Tuesday...

The National Weather Service in Rapid City has issued a Winter
Weather Advisory for snow and blowing snow... which is in effect
from 8 PM this evening to noon MST Tuesday.

* Timing... late this evening into Tuesday morning.

* Main hazard... snowfall of 1 to 4 inches along with northwest
winds gusting in excess of 35 mph will produce greatly reduced
visibilities due to blowing snow.

* Impacts... travel will be hazardous late tonight into Tuesday.

Precautionary/preparedness actions...

This Winter Weather Advisory means snow and blowing snow will
create hazardous conditions. Use caution when outdoors or
traveling.